sensor_id;sensor_type;location;lat;lon;timestamp;P1;durP1;ratioP1;P2;durP2;ratioP2
31808;SDS011;18379;48.208;-1.518;2023-07-31T00:02:54;57.17;;;52.37;;
31808;SDS011;18379;48.208;-1.518;2023-07-31T00:07:55;57.27;;;51.97;;
31808;SDS011;18379;48.208;-1.518;2023-07-31T00:12:55;55.40;;;50.93;;
31808;SDS011;18379;48.208;-1.518;2023-07-31T00:17:56;56.43;;;51.73;;
31808;SDS011;18379;48.208;-1.518;2023-07-31T00:22:57;56.67;;;51.77;;
31808;SDS011;18379;48.208;-1.518;2023-07-31T00:27:58;56.73;;;52.13;;
31808;SDS011;18379;48.208;-1.518;2023-07-31T00:32:58;58.10;;;52.33;;
31808;SDS011;18379;48.208;-1.518;2023-07-31T00:37:59;55.80;;;51.43;;
31808;SDS011;18379;48.208;-1.518;2023-07-31T00:43:00;55.73;;;51.00;;
31808;SDS011;18379;48.208;-1.518;2023-07-31T00:48:01;56.77;;;51.67;;
31808;SDS011;18379;48.208;-1.518;2023-07-31T00:53:02;57.23;;;52.03;;
31808;SDS011;18379;48.208;-1.518;2023-07-31T00:58:02;56.67;;;51.93;;
31808;SDS011;18379;48.208;-1.518;2023-07-31T01:03:03;56.57;;;52.13;;
31808;SDS011;18379;48.208;-1.518;2023-07-31T01:08:08;56.37;;;51.80;;
31808;SDS011;18379;48.208;-1.518;2023-07-31T01:13:38;56.50;;;51.50;;
31808;SDS011;18379;48.208;-1.518;2023-07-31T01:18:39;55.83;;;51.27;;
31808;SDS011;18379;48.208;-1.518;2023-07-31T01:29:10;56.07;;;51.63;;
31808;SDS011;18379;48.208;-1.518;2023-07-31T01:34:14;56.80;;;52.03;;
31808;SDS011;18379;48.208;-1.518;2023-07-31T01:39:19;56.13;;;51.67;;
31808;SDS011;18379;48.208;-1.518;2023-07-31T01:44:20;56.23;;;51.73;;
31808;SDS011;18379;48.208;-1.518;2023-07-31T01:49:21;56.30;;;51.73;;
31808;SDS011;18379;48.208;-1.518;2023-07-31T01:54:22;56.10;;;51.30;;
31808;SDS011;18379;48.208;-1.518;2023-07-31T01:59:23;55.70;;;51.23;;
31808;SDS011;18379;48.208;-1.518;2023-07-31T02:04:24;55.77;;;51.00;;
31808;SDS011;18379;48.208;-1.518;2023-07-31T02:09:24;55.03;;;50.73;;
31808;SDS011;18379;48.208;-1.518;2023-07-31T02:14:25;55.70;;;51.03;;
31808;SDS011;18379;48.208;-1.518;2023-07-31T02:19:26;56.43;;;51.67;;
31808;SDS011;18379;48.208;-1.518;2023-07-31T02:24:27;56.50;;;51.37;;
31808;SDS011;18379;48.208;-1.518;2023-07-31T02:29:28;55.33;;;50.83;;
31808;SDS011;18379;48.208;-1.518;2023-07-31T02:34:29;55.10;;;50.50;;
31808;SDS011;18379;48.208;-1.518;2023-07-31T02:39:29;56.13;;;51.07;;
31808;SDS011;18379;48.208;-1.518;2023-07-31T02:44:30;55.17;;;50.63;;
31808;SDS011;18379;48.208;-1.518;2023-07-31T02:49:31;54.93;;;50.37;;
31808;SDS011;18379;48.208;-1.518;2023-07-31T02:54:31;55.70;;;50.93;;
31808;SDS011;18379;48.208;-1.518;2023-07-31T02:59:32;54.73;;;50.43;;
31808;SDS011;18379;48.208;-1.518;2023-07-31T03:04:33;55.07;;;50.40;;
31808;SDS011;18379;48.208;-1.518;2023-07-31T03:09:34;54.70;;;50.50;;
31808;SDS011;18379;48.208;-1.518;2023-07-31T03:14:35;56.17;;;51.23;;
31808;SDS011;18379;48.208;-1.518;2023-07-31T03:19:35;55.30;;;50.70;;
31808;SDS011;18379;48.208;-1.518;2023-07-31T03:24:36;54.60;;;50.43;;
31808;SDS011;18379;48.208;-1.518;2023-07-31T03:29:37;55.73;;;51.03;;
31808;SDS011;18379;48.208;-1.518;2023-07-31T03:34:38;55.67;;;51.23;;
31808;SDS011;18379;48.208;-1.518;2023-07-31T03:39:38;55.03;;;50.60;;
31808;SDS011;18379;48.208;-1.518;2023-07-31T03:44:39;54.87;;;50.57;;
31808;SDS011;18379;48.208;-1.518;2023-07-31T03:49:40;54.77;;;50.37;;
31808;SDS011;18379;48.208;-1.518;2023-07-31T03:54:41;55.47;;;51.00;;
31808;SDS011;18379;48.208;-1.518;2023-07-31T03:59:44;54.73;;;50.13;;
31808;SDS011;18379;48.208;-1.518;2023-07-31T04:04:45;55.30;;;50.60;;
31808;SDS011;18379;48.208;-1.518;2023-07-31T04:09:45;55.90;;;51.13;;
31808;SDS011;18379;48.208;-1.518;2023-07-31T04:14:46;55.80;;;50.97;;
31808;SDS011;18379;48.208;-1.518;2023-07-31T04:19:47;54.87;;;50.23;;
31808;SDS011;18379;48.208;-1.518;2023-07-31T04:24:48;56.07;;;51.70;;
31808;SDS011;18379;48.208;-1.518;2023-07-31T04:29:49;55.70;;;50.93;;
31808;SDS011;18379;48.208;-1.518;2023-07-31T04:34:49;56.90;;;51.73;;
31808;SDS011;18379;48.208;-1.518;2023-07-31T04:39:50;55.70;;;51.07;;
31808;SDS011;18379;48.208;-1.518;2023-07-31T04:44:51;55.30;;;51.00;;
31808;SDS011;18379;48.208;-1.518;2023-07-31T04:49:53;55.60;;;51.30;;
31808;SDS011;18379;48.208;-1.518;2023-07-31T04:54:53;55.00;;;50.50;;
31808;SDS011;18379;48.208;-1.518;2023-07-31T04:59:54;54.43;;;50.47;;
31808;SDS011;18379;48.208;-1.518;2023-07-31T05:04:55;55.20;;;50.97;;
31808;SDS011;18379;48.208;-1.518;2023-07-31T05:09:56;54.80;;;50.77;;
31808;SDS011;18379;48.208;-1.518;2023-07-31T05:14:56;55.67;;;50.83;;
31808;SDS011;18379;48.208;-1.518;2023-07-31T05:19:57;55.17;;;50.50;;
31808;SDS011;18379;48.208;-1.518;2023-07-31T05:24:58;55.13;;;50.50;;
31808;SDS011;18379;48.208;-1.518;2023-07-31T05:29:59;56.60;;;51.60;;
31808;SDS011;18379;48.208;-1.518;2023-07-31T05:34:59;54.67;;;50.40;;
31808;SDS011;18379;48.208;-1.518;2023-07-31T05:40:00;54.87;;;50.37;;
31808;SDS011;18379;48.208;-1.518;2023-07-31T05:45:01;55.87;;;51.53;;
31808;SDS011;18379;48.208;-1.518;2023-07-31T05:50:02;54.47;;;50.60;;
31808;SDS011;18379;48.208;-1.518;2023-07-31T05:55:03;53.97;;;49.77;;
31808;SDS011;18379;48.208;-1.518;2023-07-31T06:00:04;54.70;;;50.70;;
31808;SDS011;18379;48.208;-1.518;2023-07-31T06:05:06;54.53;;;50.37;;
31808;SDS011;18379;48.208;-1.518;2023-07-31T06:10:07;54.23;;;50.07;;
31808;SDS011;18379;48.208;-1.518;2023-07-31T06:15:09;54.83;;;49.80;;
31808;SDS011;18379;48.208;-1.518;2023-07-31T06:20:11;55.47;;;50.80;;
31808;SDS011;18379;48.208;-1.518;2023-07-31T06:25:12;55.13;;;50.83;;
31808;SDS011;18379;48.208;-1.518;2023-07-31T06:30:13;54.23;;;50.20;;
31808;SDS011;18379;48.208;-1.518;2023-07-31T06:35:13;53.67;;;49.70;;
31808;SDS011;18379;48.208;-1.518;2023-07-31T06:40:14;54.40;;;50.40;;
31808;SDS011;18379;48.208;-1.518;2023-07-31T06:45:15;54.60;;;50.37;;
31808;SDS011;18379;48.208;-1.518;2023-07-31T06:50:16;54.10;;;50.20;;
31808;SDS011;18379;48.208;-1.518;2023-07-31T06:55:17;53.93;;;49.83;;
31808;SDS011;18379;48.208;-1.518;2023-07-31T07:00:22;54.50;;;50.23;;
31808;SDS011;18379;48.208;-1.518;2023-07-31T07:05:23;54.53;;;50.47;;
31808;SDS011;18379;48.208;-1.518;2023-07-31T07:10:24;54.00;;;49.90;;
31808;SDS011;18379;48.208;-1.518;2023-07-31T07:15:24;53.80;;;50.10;;
31808;SDS011;18379;48.208;-1.518;2023-07-31T07:20:25;55.10;;;51.03;;
31808;SDS011;18379;48.208;-1.518;2023-07-31T07:25:26;53.40;;;49.47;;
31808;SDS011;18379;48.208;-1.518;2023-07-31T07:30:27;53.80;;;50.00;;
31808;SDS011;18379;48.208;-1.518;2023-07-31T07:35:28;54.73;;;50.70;;
31808;SDS011;18379;48.208;-1.518;2023-07-31T07:40:29;54.30;;;50.50;;
31808;SDS011;18379;48.208;-1.518;2023-07-31T07:45:30;53.37;;;49.80;;
31808;SDS011;18379;48.208;-1.518;2023-07-31T07:50:30;55.30;;;51.10;;
31808;SDS011;18379;48.208;-1.518;2023-07-31T07:55:32;55.17;;;50.87;;
31808;SDS011;18379;48.208;-1.518;2023-07-31T08:00:33;54.37;;;50.23;;
31808;SDS011;18379;48.208;-1.518;2023-07-31T08:05:35;54.63;;;50.23;;
31808;SDS011;18379;48.208;-1.518;2023-07-31T08:10:36;53.73;;;49.90;;
31808;SDS011;18379;48.208;-1.518;2023-07-31T08:15:37;53.90;;;50.10;;
31808;SDS011;18379;48.208;-1.518;2023-07-31T08:20:37;53.30;;;49.70;;
31808;SDS011;18379;48.208;-1.518;2023-07-31T08:25:38;52.63;;;48.87;;
31808;SDS011;18379;48.208;-1.518;2023-07-31T08:30:39;53.43;;;49.60;;
31808;SDS011;18379;48.208;-1.518;2023-07-31T08:35:40;54.83;;;50.47;;
31808;SDS011;18379;48.208;-1.518;2023-07-31T08:40:41;53.03;;;49.07;;
31808;SDS011;18379;48.208;-1.518;2023-07-31T08:45:42;53.07;;;49.30;;
31808;SDS011;18379;48.208;-1.518;2023-07-31T08:50:43;54.07;;;50.33;;
31808;SDS011;18379;48.208;-1.518;2023-07-31T08:55:44;53.00;;;49.40;;
31808;SDS011;18379;48.208;-1.518;2023-07-31T09:00:46;54.27;;;50.27;;
31808;SDS011;18379;48.208;-1.518;2023-07-31T09:05:47;53.23;;;49.30;;
31808;SDS011;18379;48.208;-1.518;2023-07-31T09:10:48;54.10;;;50.33;;
31808;SDS011;18379;48.208;-1.518;2023-07-31T09:15:52;53.33;;;49.70;;
31808;SDS011;18379;48.208;-1.518;2023-07-31T09:21:05;54.63;;;50.90;;
31808;SDS011;18379;48.208;-1.518;2023-07-31T09:26:07;53.20;;;49.70;;
31808;SDS011;18379;48.208;-1.518;2023-07-31T09:31:08;53.87;;;50.17;;
31808;SDS011;18379;48.208;-1.518;2023-07-31T09:36:08;53.97;;;50.20;;
31808;SDS011;18379;48.208;-1.518;2023-07-31T09:41:09;53.67;;;50.07;;
31808;SDS011;18379;48.208;-1.518;2023-07-31T09:46:14;54.37;;;50.67;;
31808;SDS011;18379;48.208;-1.518;2023-07-31T09:51:15;55.17;;;51.00;;
31808;SDS011;18379;48.208;-1.518;2023-07-31T09:56:16;55.20;;;51.50;;
31808;SDS011;18379;48.208;-1.518;2023-07-31T10:01:19;55.40;;;51.70;;
31808;SDS011;18379;48.208;-1.518;2023-07-31T10:06:20;55.93;;;51.87;;
31808;SDS011;18379;48.208;-1.518;2023-07-31T10:11:22;55.73;;;51.83;;
31808;SDS011;18379;48.208;-1.518;2023-07-31T10:16:27;56.20;;;52.17;;
31808;SDS011;18379;48.208;-1.518;2023-07-31T10:21:30;58.17;;;53.53;;
31808;SDS011;18379;48.208;-1.518;2023-07-31T10:26:35;57.17;;;52.93;;
31808;SDS011;18379;48.208;-1.518;2023-07-31T10:31:38;57.90;;;53.10;;
31808;SDS011;18379;48.208;-1.518;2023-07-31T10:36:40;57.67;;;53.03;;
31808;SDS011;18379;48.208;-1.518;2023-07-31T10:41:40;59.77;;;54.70;;
31808;SDS011;18379;48.208;-1.518;2023-07-31T10:46:41;55.47;;;51.37;;
31808;SDS011;18379;48.208;-1.518;2023-07-31T10:51:42;85.47;;;76.97;;
31808;SDS011;18379;48.208;-1.518;2023-07-31T10:56:46;160.57;;;124.83;;
31808;SDS011;18379;48.208;-1.518;2023-07-31T11:01:50;104.67;;;90.83;;
31808;SDS011;18379;48.208;-1.518;2023-07-31T11:06:59;252.37;;;204.30;;
31808;SDS011;18379;48.208;-1.518;2023-07-31T11:12:03;180.57;;;153.27;;
31808;SDS011;18379;48.208;-1.518;2023-07-31T11:17:07;176.40;;;130.73;;
31808;SDS011;18379;48.208;-1.518;2023-07-31T11:22:08;66.00;;;60.43;;
31808;SDS011;18379;48.208;-1.518;2023-07-31T11:27:09;57.97;;;53.47;;
31808;SDS011;18379;48.208;-1.518;2023-07-31T11:32:15;58.70;;;54.30;;
31808;SDS011;18379;48.208;-1.518;2023-07-31T11:37:17;56.07;;;52.03;;
31808;SDS011;18379;48.208;-1.518;2023-07-31T11:42:18;56.20;;;52.17;;
31808;SDS011;18379;48.208;-1.518;2023-07-31T11:47:19;56.83;;;52.60;;
31808;SDS011;18379;48.208;-1.518;2023-07-31T11:52:20;56.10;;;52.07;;
31808;SDS011;18379;48.208;-1.518;2023-07-31T11:57:22;55.63;;;51.67;;
31808;SDS011;18379;48.208;-1.518;2023-07-31T12:02:23;55.83;;;51.90;;
31808;SDS011;18379;48.208;-1.518;2023-07-31T12:07:24;56.07;;;52.17;;
31808;SDS011;18379;48.208;-1.518;2023-07-31T12:12:25;55.53;;;51.73;;
31808;SDS011;18379;48.208;-1.518;2023-07-31T12:17:26;55.40;;;51.63;;
31808;SDS011;18379;48.208;-1.518;2023-07-31T12:22:27;55.73;;;51.80;;
31808;SDS011;18379;48.208;-1.518;2023-07-31T12:27:32;56.23;;;52.23;;
31808;SDS011;18379;48.208;-1.518;2023-07-31T12:32:34;55.83;;;51.83;;
31808;SDS011;18379;48.208;-1.518;2023-07-31T12:37:35;55.80;;;52.10;;
31808;SDS011;18379;48.208;-1.518;2023-07-31T12:42:36;54.90;;;51.10;;
31808;SDS011;18379;48.208;-1.518;2023-07-31T12:47:37;55.30;;;51.50;;
31808;SDS011;18379;48.208;-1.518;2023-07-31T12:52:37;54.03;;;50.33;;
31808;SDS011;18379;48.208;-1.518;2023-07-31T12:57:39;54.33;;;50.73;;
31808;SDS011;18379;48.208;-1.518;2023-07-31T13:02:40;55.07;;;51.47;;
31808;SDS011;18379;48.208;-1.518;2023-07-31T13:07:41;54.37;;;50.90;;
31808;SDS011;18379;48.208;-1.518;2023-07-31T13:12:42;53.80;;;50.40;;
31808;SDS011;18379;48.208;-1.518;2023-07-31T13:17:43;52.87;;;49.37;;
31808;SDS011;18379;48.208;-1.518;2023-07-31T13:22:44;54.43;;;50.87;;
31808;SDS011;18379;48.208;-1.518;2023-07-31T13:27:44;53.57;;;50.13;;
31808;SDS011;18379;48.208;-1.518;2023-07-31T13:32:45;53.17;;;49.87;;
31808;SDS011;18379;48.208;-1.518;2023-07-31T13:37:46;52.43;;;49.23;;
31808;SDS011;18379;48.208;-1.518;2023-07-31T13:42:47;52.90;;;49.70;;
31808;SDS011;18379;48.208;-1.518;2023-07-31T13:47:49;52.83;;;49.63;;
31808;SDS011;18379;48.208;-1.518;2023-07-31T13:52:51;52.10;;;48.90;;
31808;SDS011;18379;48.208;-1.518;2023-07-31T13:57:51;52.73;;;49.37;;
31808;SDS011;18379;48.208;-1.518;2023-07-31T14:02:53;53.83;;;50.37;;
31808;SDS011;18379;48.208;-1.518;2023-07-31T14:07:54;53.03;;;49.63;;
31808;SDS011;18379;48.208;-1.518;2023-07-31T14:12:55;52.43;;;49.03;;
31808;SDS011;18379;48.208;-1.518;2023-07-31T14:17:55;52.93;;;49.53;;
31808;SDS011;18379;48.208;-1.518;2023-07-31T14:22:56;53.07;;;49.73;;
31808;SDS011;18379;48.208;-1.518;2023-07-31T14:27:59;51.73;;;48.53;;
31808;SDS011;18379;48.208;-1.518;2023-07-31T14:32:59;53.07;;;49.67;;
31808;SDS011;18379;48.208;-1.518;2023-07-31T14:38:02;52.10;;;48.80;;
31808;SDS011;18379;48.208;-1.518;2023-07-31T14:43:03;51.97;;;48.77;;
31808;SDS011;18379;48.208;-1.518;2023-07-31T14:48:04;52.47;;;49.20;;
31808;SDS011;18379;48.208;-1.518;2023-07-31T14:53:04;52.13;;;48.93;;
31808;SDS011;18379;48.208;-1.518;2023-07-31T14:58:05;51.23;;;48.23;;
31808;SDS011;18379;48.208;-1.518;2023-07-31T15:03:06;51.27;;;48.23;;
31808;SDS011;18379;48.208;-1.518;2023-07-31T15:08:09;51.17;;;48.07;;
31808;SDS011;18379;48.208;-1.518;2023-07-31T15:13:09;51.70;;;48.60;;
31808;SDS011;18379;48.208;-1.518;2023-07-31T15:18:10;52.47;;;49.27;;
31808;SDS011;18379;48.208;-1.518;2023-07-31T15:23:11;52.10;;;48.90;;
31808;SDS011;18379;48.208;-1.518;2023-07-31T15:28:12;52.17;;;49.07;;
31808;SDS011;18379;48.208;-1.518;2023-07-31T15:33:13;52.20;;;48.90;;
31808;SDS011;18379;48.208;-1.518;2023-07-31T15:38:15;52.33;;;48.83;;
31808;SDS011;18379;48.208;-1.518;2023-07-31T15:43:16;51.77;;;48.60;;
31808;SDS011;18379;48.208;-1.518;2023-07-31T15:48:18;52.73;;;49.27;;
31808;SDS011;18379;48.208;-1.518;2023-07-31T15:53:19;52.70;;;49.40;;
31808;SDS011;18379;48.208;-1.518;2023-07-31T15:58:20;52.43;;;49.20;;
31808;SDS011;18379;48.208;-1.518;2023-07-31T16:03:20;51.27;;;48.17;;
31808;SDS011;18379;48.208;-1.518;2023-07-31T16:08:21;52.33;;;49.13;;
31808;SDS011;18379;48.208;-1.518;2023-07-31T16:13:22;52.47;;;49.27;;
31808;SDS011;18379;48.208;-1.518;2023-07-31T16:18:23;52.40;;;49.10;;
31808;SDS011;18379;48.208;-1.518;2023-07-31T16:23:23;53.07;;;49.67;;
31808;SDS011;18379;48.208;-1.518;2023-07-31T16:28:24;54.47;;;50.60;;
31808;SDS011;18379;48.208;-1.518;2023-07-31T16:33:25;52.83;;;49.47;;
31808;SDS011;18379;48.208;-1.518;2023-07-31T16:38:26;52.70;;;49.17;;
31808;SDS011;18379;48.208;-1.518;2023-07-31T16:43:26;53.40;;;49.80;;
31808;SDS011;18379;48.208;-1.518;2023-07-31T16:48:29;54.40;;;50.47;;
31808;SDS011;18379;48.208;-1.518;2023-07-31T16:53:29;53.73;;;50.00;;
31808;SDS011;18379;48.208;-1.518;2023-07-31T16:58:30;54.73;;;50.50;;
31808;SDS011;18379;48.208;-1.518;2023-07-31T17:03:31;54.63;;;50.67;;
31808;SDS011;18379;48.208;-1.518;2023-07-31T17:08:33;56.17;;;51.80;;
31808;SDS011;18379;48.208;-1.518;2023-07-31T17:13:34;55.67;;;51.67;;
31808;SDS011;18379;48.208;-1.518;2023-07-31T17:18:34;56.43;;;51.87;;
31808;SDS011;18379;48.208;-1.518;2023-07-31T17:23:37;55.23;;;51.13;;
31808;SDS011;18379;48.208;-1.518;2023-07-31T17:28:38;56.90;;;52.43;;
31808;SDS011;18379;48.208;-1.518;2023-07-31T17:33:39;55.30;;;51.03;;
31808;SDS011;18379;48.208;-1.518;2023-07-31T17:38:40;55.27;;;50.97;;
31808;SDS011;18379;48.208;-1.518;2023-07-31T17:43:41;55.50;;;51.40;;
31808;SDS011;18379;48.208;-1.518;2023-07-31T17:48:42;56.13;;;52.13;;
31808;SDS011;18379;48.208;-1.518;2023-07-31T17:53:43;56.20;;;51.57;;
31808;SDS011;18379;48.208;-1.518;2023-07-31T17:58:44;54.80;;;50.60;;
31808;SDS011;18379;48.208;-1.518;2023-07-31T18:03:45;56.77;;;52.27;;
31808;SDS011;18379;48.208;-1.518;2023-07-31T18:08:46;55.60;;;51.33;;
31808;SDS011;18379;48.208;-1.518;2023-07-31T18:13:47;55.20;;;51.00;;
31808;SDS011;18379;48.208;-1.518;2023-07-31T18:18:48;55.70;;;51.43;;
31808;SDS011;18379;48.208;-1.518;2023-07-31T18:23:48;56.70;;;52.20;;
31808;SDS011;18379;48.208;-1.518;2023-07-31T18:28:49;55.70;;;51.27;;
31808;SDS011;18379;48.208;-1.518;2023-07-31T18:33:50;54.97;;;50.97;;
31808;SDS011;18379;48.208;-1.518;2023-07-31T18:38:51;56.03;;;51.90;;
31808;SDS011;18379;48.208;-1.518;2023-07-31T18:43:51;56.13;;;51.73;;
31808;SDS011;18379;48.208;-1.518;2023-07-31T18:48:52;55.77;;;50.90;;
31808;SDS011;18379;48.208;-1.518;2023-07-31T18:53:53;56.47;;;51.83;;
31808;SDS011;18379;48.208;-1.518;2023-07-31T18:58:54;55.67;;;51.47;;
31808;SDS011;18379;48.208;-1.518;2023-07-31T19:03:55;55.00;;;51.00;;
31808;SDS011;18379;48.208;-1.518;2023-07-31T19:08:56;56.17;;;52.23;;
31808;SDS011;18379;48.208;-1.518;2023-07-31T19:13:58;54.17;;;50.07;;
31808;SDS011;18379;48.208;-1.518;2023-07-31T19:18:59;56.17;;;51.87;;
31808;SDS011;18379;48.208;-1.518;2023-07-31T19:24:00;54.70;;;50.93;;
31808;SDS011;18379;48.208;-1.518;2023-07-31T19:29:01;54.33;;;50.53;;
31808;SDS011;18379;48.208;-1.518;2023-07-31T19:34:02;54.13;;;50.47;;
31808;SDS011;18379;48.208;-1.518;2023-07-31T19:39:02;55.43;;;51.40;;
31808;SDS011;18379;48.208;-1.518;2023-07-31T19:44:03;53.57;;;49.97;;
31808;SDS011;18379;48.208;-1.518;2023-07-31T19:49:04;54.83;;;51.03;;
31808;SDS011;18379;48.208;-1.518;2023-07-31T19:54:05;55.23;;;51.43;;
31808;SDS011;18379;48.208;-1.518;2023-07-31T19:59:06;55.07;;;51.47;;
31808;SDS011;18379;48.208;-1.518;2023-07-31T20:04:07;53.63;;;50.27;;
31808;SDS011;18379;48.208;-1.518;2023-07-31T20:09:07;55.10;;;51.30;;
31808;SDS011;18379;48.208;-1.518;2023-07-31T20:14:09;54.07;;;50.57;;
31808;SDS011;18379;48.208;-1.518;2023-07-31T20:19:10;52.40;;;49.10;;
31808;SDS011;18379;48.208;-1.518;2023-07-31T20:24:11;53.47;;;49.83;;
31808;SDS011;18379;48.208;-1.518;2023-07-31T20:29:12;53.13;;;49.73;;
31808;SDS011;18379;48.208;-1.518;2023-07-31T20:34:13;52.77;;;49.17;;
31808;SDS011;18379;48.208;-1.518;2023-07-31T20:39:13;52.37;;;48.93;;
31808;SDS011;18379;48.208;-1.518;2023-07-31T20:44:14;52.20;;;49.03;;
31808;SDS011;18379;48.208;-1.518;2023-07-31T20:49:15;52.90;;;49.47;;
31808;SDS011;18379;48.208;-1.518;2023-07-31T20:54:16;51.50;;;48.30;;
31808;SDS011;18379;48.208;-1.518;2023-07-31T20:59:17;52.87;;;49.47;;
31808;SDS011;18379;48.208;-1.518;2023-07-31T21:04:18;51.00;;;47.87;;
31808;SDS011;18379;48.208;-1.518;2023-07-31T21:09:19;51.97;;;48.57;;
31808;SDS011;18379;48.208;-1.518;2023-07-31T21:14:20;51.30;;;48.10;;
31808;SDS011;18379;48.208;-1.518;2023-07-31T21:19:20;50.77;;;47.67;;
31808;SDS011;18379;48.208;-1.518;2023-07-31T21:24:21;51.70;;;48.60;;
31808;SDS011;18379;48.208;-1.518;2023-07-31T21:29:22;51.63;;;48.43;;
31808;SDS011;18379;48.208;-1.518;2023-07-31T21:34:23;50.33;;;47.43;;
31808;SDS011;18379;48.208;-1.518;2023-07-31T21:39:24;50.80;;;47.80;;
31808;SDS011;18379;48.208;-1.518;2023-07-31T21:44:24;51.30;;;48.00;;
31808;SDS011;18379;48.208;-1.518;2023-07-31T21:49:25;51.33;;;48.13;;
31808;SDS011;18379;48.208;-1.518;2023-07-31T21:54:26;51.17;;;47.97;;
31808;SDS011;18379;48.208;-1.518;2023-07-31T21:59:27;50.83;;;47.73;;
31808;SDS011;18379;48.208;-1.518;2023-07-31T22:04:27;51.30;;;48.20;;
31808;SDS011;18379;48.208;-1.518;2023-07-31T22:09:28;50.97;;;47.87;;
31808;SDS011;18379;48.208;-1.518;2023-07-31T22:14:29;51.13;;;48.00;;
31808;SDS011;18379;48.208;-1.518;2023-07-31T22:19:30;50.80;;;47.77;;
31808;SDS011;18379;48.208;-1.518;2023-07-31T22:24:31;50.33;;;47.43;;
31808;SDS011;18379;48.208;-1.518;2023-07-31T22:29:31;50.60;;;47.43;;
31808;SDS011;18379;48.208;-1.518;2023-07-31T22:34:32;50.43;;;47.33;;
31808;SDS011;18379;48.208;-1.518;2023-07-31T22:39:33;50.67;;;47.60;;
31808;SDS011;18379;48.208;-1.518;2023-07-31T22:44:35;50.33;;;47.30;;
31808;SDS011;18379;48.208;-1.518;2023-07-31T22:49:36;50.37;;;47.47;;
31808;SDS011;18379;48.208;-1.518;2023-07-31T22:54:37;50.73;;;47.73;;
31808;SDS011;18379;48.208;-1.518;2023-07-31T22:59:37;49.67;;;46.60;;
31808;SDS011;18379;48.208;-1.518;2023-07-31T23:04:38;50.53;;;47.43;;
31808;SDS011;18379;48.208;-1.518;2023-07-31T23:09:39;49.73;;;46.77;;
31808;SDS011;18379;48.208;-1.518;2023-07-31T23:14:40;50.20;;;47.30;;
31808;SDS011;18379;48.208;-1.518;2023-07-31T23:19:40;49.63;;;46.63;;
31808;SDS011;18379;48.208;-1.518;2023-07-31T23:24:41;49.27;;;46.17;;
31808;SDS011;18379;48.208;-1.518;2023-07-31T23:29:42;49.50;;;46.70;;
31808;SDS011;18379;48.208;-1.518;2023-07-31T23:34:42;49.63;;;46.73;;
31808;SDS011;18379;48.208;-1.518;2023-07-31T23:39:43;49.40;;;46.60;;
31808;SDS011;18379;48.208;-1.518;2023-07-31T23:44:44;49.70;;;46.70;;
31808;SDS011;18379;48.208;-1.518;2023-07-31T23:49:49;49.63;;;46.77;;
31808;SDS011;18379;48.208;-1.518;2023-07-31T23:54:50;50.10;;;47.10;;
31808;SDS011;18379;48.208;-1.518;2023-07-31T23:59:51;49.30;;;46.20;;
